sensor_id;sensor_type;location;lat;lon;timestamp;P1;durP1;ratioP1;P2;durP2;ratioP2
22949;SDS011;11641;51.018;4.474;2023-04-08T00:00:43;13.57;;;5.70;;
22949;SDS011;11641;51.018;4.474;2023-04-08T00:03:09;20.65;;;5.85;;
22949;SDS011;11641;51.018;4.474;2023-04-08T00:05:35;17.83;;;5.85;;
22949;SDS011;11641;51.018;4.474;2023-04-08T00:08:01;24.38;;;5.78;;
22949;SDS011;11641;51.018;4.474;2023-04-08T00:10:27;17.83;;;6.20;;
22949;SDS011;11641;51.018;4.474;2023-04-08T00:12:52;17.77;;;5.65;;
22949;SDS011;11641;51.018;4.474;2023-04-08T00:15:19;19.60;;;6.35;;
22949;SDS011;11641;51.018;4.474;2023-04-08T00:17:44;23.45;;;6.63;;
22949;SDS011;11641;51.018;4.474;2023-04-08T00:20:10;22.45;;;7.00;;
22949;SDS011;11641;51.018;4.474;2023-04-08T00:22:38;23.17;;;7.25;;
22949;SDS011;11641;51.018;4.474;2023-04-08T00:25:04;28.02;;;8.40;;
22949;SDS011;11641;51.018;4.474;2023-04-08T00:27:33;15.55;;;6.07;;
22949;SDS011;11641;51.018;4.474;2023-04-08T00:29:59;21.77;;;7.45;;
22949;SDS011;11641;51.018;4.474;2023-04-08T00:32:26;23.92;;;7.30;;
22949;SDS011;11641;51.018;4.474;2023-04-08T00:34:52;18.70;;;7.13;;
22949;SDS011;11641;51.018;4.474;2023-04-08T00:37:18;18.17;;;7.70;;
22949;SDS011;11641;51.018;4.474;2023-04-08T00:39:43;19.33;;;7.50;;
22949;SDS011;11641;51.018;4.474;2023-04-08T00:42:09;23.25;;;8.25;;
22949;SDS011;11641;51.018;4.474;2023-04-08T00:44:35;24.98;;;7.72;;
22949;SDS011;11641;51.018;4.474;2023-04-08T00:47:00;25.48;;;8.63;;
22949;SDS011;11641;51.018;4.474;2023-04-08T00:49:27;22.25;;;7.88;;
22949;SDS011;11641;51.018;4.474;2023-04-08T00:51:54;23.50;;;7.80;;
22949;SDS011;11641;51.018;4.474;2023-04-08T00:54:20;24.05;;;7.63;;
22949;SDS011;11641;51.018;4.474;2023-04-08T00:56:45;24.83;;;8.02;;
22949;SDS011;11641;51.018;4.474;2023-04-08T00:59:28;19.67;;;8.00;;
22949;SDS011;11641;51.018;4.474;2023-04-08T01:02:13;19.20;;;8.10;;
22949;SDS011;11641;51.018;4.474;2023-04-08T01:07:34;20.33;;;8.20;;
22949;SDS011;11641;51.018;4.474;2023-04-08T01:10:06;26.55;;;7.60;;
22949;SDS011;11641;51.018;4.474;2023-04-08T01:13:04;29.83;;;7.47;;
22949;SDS011;11641;51.018;4.474;2023-04-08T01:15:32;23.17;;;7.40;;
22949;SDS011;11641;51.018;4.474;2023-04-08T01:18:01;31.77;;;9.05;;
22949;SDS011;11641;51.018;4.474;2023-04-08T01:20:31;20.63;;;7.55;;
22949;SDS011;11641;51.018;4.474;2023-04-08T01:25:28;23.27;;;8.15;;
22949;SDS011;11641;51.018;4.474;2023-04-08T01:27:56;23.42;;;7.65;;
22949;SDS011;11641;51.018;4.474;2023-04-08T01:30:23;22.90;;;8.10;;
22949;SDS011;11641;51.018;4.474;2023-04-08T01:32:51;19.70;;;8.02;;
22949;SDS011;11641;51.018;4.474;2023-04-08T01:35:18;25.42;;;7.93;;
22949;SDS011;11641;51.018;4.474;2023-04-08T01:37:44;27.95;;;8.18;;
22949;SDS011;11641;51.018;4.474;2023-04-08T01:40:13;25.17;;;8.00;;
22949;SDS011;11641;51.018;4.474;2023-04-08T01:42:40;19.30;;;7.97;;
22949;SDS011;11641;51.018;4.474;2023-04-08T01:45:08;21.60;;;8.63;;
22949;SDS011;11641;51.018;4.474;2023-04-08T01:47:34;24.38;;;8.43;;
22949;SDS011;11641;51.018;4.474;2023-04-08T01:50:02;22.92;;;7.95;;
22949;SDS011;11641;51.018;4.474;2023-04-08T01:52:31;22.30;;;8.18;;
22949;SDS011;11641;51.018;4.474;2023-04-08T01:54:59;21.88;;;8.45;;
22949;SDS011;11641;51.018;4.474;2023-04-08T01:57:26;21.75;;;8.23;;
22949;SDS011;11641;51.018;4.474;2023-04-08T01:59:58;27.83;;;8.45;;
22949;SDS011;11641;51.018;4.474;2023-04-08T02:02:29;25.98;;;9.25;;
22949;SDS011;11641;51.018;4.474;2023-04-08T02:04:57;26.88;;;8.77;;
22949;SDS011;11641;51.018;4.474;2023-04-08T02:07:25;23.63;;;8.75;;
22949;SDS011;11641;51.018;4.474;2023-04-08T02:09:51;30.35;;;8.75;;
22949;SDS011;11641;51.018;4.474;2023-04-08T02:12:16;19.95;;;7.90;;
22949;SDS011;11641;51.018;4.474;2023-04-08T02:14:45;24.20;;;9.15;;
22949;SDS011;11641;51.018;4.474;2023-04-08T02:17:12;26.00;;;8.30;;
22949;SDS011;11641;51.018;4.474;2023-04-08T02:19:48;26.08;;;9.80;;
22949;SDS011;11641;51.018;4.474;2023-04-08T02:22:38;29.63;;;9.63;;
22949;SDS011;11641;51.018;4.474;2023-04-08T02:25:15;20.90;;;9.63;;
22949;SDS011;11641;51.018;4.474;2023-04-08T02:27:42;35.13;;;10.27;;
22949;SDS011;11641;51.018;4.474;2023-04-08T02:30:10;28.55;;;9.48;;
22949;SDS011;11641;51.018;4.474;2023-04-08T02:32:37;24.77;;;9.75;;
22949;SDS011;11641;51.018;4.474;2023-04-08T02:35:03;22.05;;;9.30;;
22949;SDS011;11641;51.018;4.474;2023-04-08T02:37:30;25.33;;;10.00;;
22949;SDS011;11641;51.018;4.474;2023-04-08T02:40:01;27.70;;;10.30;;
22949;SDS011;11641;51.018;4.474;2023-04-08T02:42:27;26.73;;;10.52;;
22949;SDS011;11641;51.018;4.474;2023-04-08T02:44:52;27.27;;;10.68;;
22949;SDS011;11641;51.018;4.474;2023-04-08T02:47:23;27.75;;;10.60;;
22949;SDS011;11641;51.018;4.474;2023-04-08T02:49:49;25.10;;;9.82;;
22949;SDS011;11641;51.018;4.474;2023-04-08T02:52:19;25.73;;;10.38;;
22949;SDS011;11641;51.018;4.474;2023-04-08T02:54:44;23.33;;;10.55;;
22949;SDS011;11641;51.018;4.474;2023-04-08T02:57:12;35.83;;;10.93;;
22949;SDS011;11641;51.018;4.474;2023-04-08T02:59:38;24.08;;;10.38;;
22949;SDS011;11641;51.018;4.474;2023-04-08T03:02:04;28.80;;;10.18;;
22949;SDS011;11641;51.018;4.474;2023-04-08T03:04:30;28.30;;;10.65;;
22949;SDS011;11641;51.018;4.474;2023-04-08T03:06:56;28.67;;;10.93;;
22949;SDS011;11641;51.018;4.474;2023-04-08T03:09:21;23.33;;;11.40;;
22949;SDS011;11641;51.018;4.474;2023-04-08T03:11:47;23.77;;;10.75;;
22949;SDS011;11641;51.018;4.474;2023-04-08T03:14:17;29.17;;;11.82;;
22949;SDS011;11641;51.018;4.474;2023-04-08T03:16:45;28.35;;;12.13;;
22949;SDS011;11641;51.018;4.474;2023-04-08T03:19:10;29.48;;;12.00;;
22949;SDS011;11641;51.018;4.474;2023-04-08T03:21:36;27.02;;;11.68;;
22949;SDS011;11641;51.018;4.474;2023-04-08T03:24:02;30.77;;;12.80;;
22949;SDS011;11641;51.018;4.474;2023-04-08T03:26:28;24.42;;;11.98;;
22949;SDS011;11641;51.018;4.474;2023-04-08T03:28:55;24.55;;;12.52;;
22949;SDS011;11641;51.018;4.474;2023-04-08T03:31:21;24.77;;;11.98;;
22949;SDS011;11641;51.018;4.474;2023-04-08T03:33:47;30.65;;;12.95;;
22949;SDS011;11641;51.018;4.474;2023-04-08T03:36:13;31.30;;;12.20;;
22949;SDS011;11641;51.018;4.474;2023-04-08T03:38:43;25.83;;;13.70;;
22949;SDS011;11641;51.018;4.474;2023-04-08T03:41:09;28.02;;;12.75;;
22949;SDS011;11641;51.018;4.474;2023-04-08T03:43:35;25.92;;;12.98;;
22949;SDS011;11641;51.018;4.474;2023-04-08T03:46:02;25.27;;;12.93;;
22949;SDS011;11641;51.018;4.474;2023-04-08T03:48:28;24.60;;;12.68;;
22949;SDS011;11641;51.018;4.474;2023-04-08T03:50:56;30.38;;;13.65;;
22949;SDS011;11641;51.018;4.474;2023-04-08T03:53:22;31.00;;;13.88;;
22949;SDS011;11641;51.018;4.474;2023-04-08T03:55:48;35.35;;;14.50;;
22949;SDS011;11641;51.018;4.474;2023-04-08T03:58:17;33.88;;;12.98;;
22949;SDS011;11641;51.018;4.474;2023-04-08T04:00:42;34.38;;;13.05;;
22949;SDS011;11641;51.018;4.474;2023-04-08T04:03:10;29.90;;;13.10;;
22949;SDS011;11641;51.018;4.474;2023-04-08T04:05:37;26.98;;;12.70;;
22949;SDS011;11641;51.018;4.474;2023-04-08T04:08:03;33.00;;;13.95;;
22949;SDS011;11641;51.018;4.474;2023-04-08T04:10:30;24.45;;;12.90;;
22949;SDS011;11641;51.018;4.474;2023-04-08T04:12:55;30.33;;;13.73;;
22949;SDS011;11641;51.018;4.474;2023-04-08T04:15:21;33.08;;;14.02;;
22949;SDS011;11641;51.018;4.474;2023-04-08T04:17:47;37.45;;;14.68;;
22949;SDS011;11641;51.018;4.474;2023-04-08T04:20:16;28.75;;;14.00;;
22949;SDS011;11641;51.018;4.474;2023-04-08T04:22:42;35.05;;;14.52;;
22949;SDS011;11641;51.018;4.474;2023-04-08T04:25:08;32.75;;;14.50;;
22949;SDS011;11641;51.018;4.474;2023-04-08T04:27:34;25.10;;;13.68;;
22949;SDS011;11641;51.018;4.474;2023-04-08T04:30:01;30.98;;;15.13;;
22949;SDS011;11641;51.018;4.474;2023-04-08T04:32:27;30.83;;;14.88;;
22949;SDS011;11641;51.018;4.474;2023-04-08T04:34:53;34.08;;;15.02;;
22949;SDS011;11641;51.018;4.474;2023-04-08T04:37:19;32.10;;;14.88;;
22949;SDS011;11641;51.018;4.474;2023-04-08T04:39:44;33.83;;;14.40;;
22949;SDS011;11641;51.018;4.474;2023-04-08T04:42:13;34.25;;;14.80;;
22949;SDS011;11641;51.018;4.474;2023-04-08T04:44:41;34.30;;;15.38;;
22949;SDS011;11641;51.018;4.474;2023-04-08T04:47:07;31.58;;;15.18;;
22949;SDS011;11641;51.018;4.474;2023-04-08T04:49:32;42.67;;;15.38;;
22949;SDS011;11641;51.018;4.474;2023-04-08T04:51:58;33.67;;;14.45;;
22949;SDS011;11641;51.018;4.474;2023-04-08T04:54:24;39.40;;;16.33;;
22949;SDS011;11641;51.018;4.474;2023-04-08T04:56:49;26.20;;;13.43;;
22949;SDS011;11641;51.018;4.474;2023-04-08T04:59:17;27.02;;;14.50;;
22949;SDS011;11641;51.018;4.474;2023-04-08T05:01:43;27.75;;;15.40;;
22949;SDS011;11641;51.018;4.474;2023-04-08T05:04:08;29.55;;;14.65;;
22949;SDS011;11641;51.018;4.474;2023-04-08T05:06:34;34.42;;;15.60;;
22949;SDS011;11641;51.018;4.474;2023-04-08T05:09:00;39.10;;;17.55;;
22949;SDS011;11641;51.018;4.474;2023-04-08T05:11:29;40.20;;;16.73;;
22949;SDS011;11641;51.018;4.474;2023-04-08T05:13:54;32.80;;;15.75;;
22949;SDS011;11641;51.018;4.474;2023-04-08T05:16:20;32.95;;;17.10;;
22949;SDS011;11641;51.018;4.474;2023-04-08T05:18:46;31.88;;;17.02;;
22949;SDS011;11641;51.018;4.474;2023-04-08T05:21:14;34.80;;;16.67;;
22949;SDS011;11641;51.018;4.474;2023-04-08T05:23:43;36.22;;;16.30;;
22949;SDS011;11641;51.018;4.474;2023-04-08T05:26:09;36.00;;;17.15;;
22949;SDS011;11641;51.018;4.474;2023-04-08T05:28:36;46.90;;;17.27;;
22949;SDS011;11641;51.018;4.474;2023-04-08T05:31:07;34.10;;;17.50;;
22949;SDS011;11641;51.018;4.474;2023-04-08T05:33:32;41.17;;;17.85;;
22949;SDS011;11641;51.018;4.474;2023-04-08T05:35:58;36.05;;;18.15;;
22949;SDS011;11641;51.018;4.474;2023-04-08T05:38:24;31.60;;;17.67;;
22949;SDS011;11641;51.018;4.474;2023-04-08T05:40:49;33.17;;;17.50;;
22949;SDS011;11641;51.018;4.474;2023-04-08T05:43:17;37.40;;;17.80;;
22949;SDS011;11641;51.018;4.474;2023-04-08T05:45:45;38.53;;;18.13;;
22949;SDS011;11641;51.018;4.474;2023-04-08T05:48:11;33.47;;;17.88;;
22949;SDS011;11641;51.018;4.474;2023-04-08T05:50:36;42.25;;;19.25;;
22949;SDS011;11641;51.018;4.474;2023-04-08T05:53:02;41.10;;;17.25;;
22949;SDS011;11641;51.018;4.474;2023-04-08T05:55:28;38.95;;;16.70;;
22949;SDS011;11641;51.018;4.474;2023-04-08T05:57:56;34.65;;;17.90;;
22949;SDS011;11641;51.018;4.474;2023-04-08T06:00:22;32.58;;;17.42;;
22949;SDS011;11641;51.018;4.474;2023-04-08T06:02:47;38.65;;;18.08;;
22949;SDS011;11641;51.018;4.474;2023-04-08T06:05:13;40.63;;;18.88;;
22949;SDS011;11641;51.018;4.474;2023-04-08T06:07:38;38.65;;;17.20;;
22949;SDS011;11641;51.018;4.474;2023-04-08T06:10:04;32.53;;;17.33;;
22949;SDS011;11641;51.018;4.474;2023-04-08T06:12:34;35.53;;;17.42;;
22949;SDS011;11641;51.018;4.474;2023-04-08T06:15:00;32.72;;;18.30;;
22949;SDS011;11641;51.018;4.474;2023-04-08T06:17:26;34.67;;;17.77;;
22949;SDS011;11641;51.018;4.474;2023-04-08T06:19:52;37.08;;;18.17;;
22949;SDS011;11641;51.018;4.474;2023-04-08T06:22:20;34.85;;;18.10;;
22949;SDS011;11641;51.018;4.474;2023-04-08T06:24:46;34.47;;;17.67;;
22949;SDS011;11641;51.018;4.474;2023-04-08T06:27:12;43.67;;;18.40;;
22949;SDS011;11641;51.018;4.474;2023-04-08T06:29:41;31.98;;;17.13;;
22949;SDS011;11641;51.018;4.474;2023-04-08T06:32:06;40.38;;;18.55;;
22949;SDS011;11641;51.018;4.474;2023-04-08T06:34:32;36.00;;;19.00;;
22949;SDS011;11641;51.018;4.474;2023-04-08T06:36:59;34.20;;;18.80;;
22949;SDS011;11641;51.018;4.474;2023-04-08T06:39:27;41.25;;;20.33;;
22949;SDS011;11641;51.018;4.474;2023-04-08T06:41:53;36.70;;;20.67;;
22949;SDS011;11641;51.018;4.474;2023-04-08T06:44:19;33.30;;;19.58;;
22949;SDS011;11641;51.018;4.474;2023-04-08T06:46:46;41.72;;;21.23;;
22949;SDS011;11641;51.018;4.474;2023-04-08T06:49:12;39.58;;;20.33;;
22949;SDS011;11641;51.018;4.474;2023-04-08T06:51:40;39.05;;;19.15;;
22949;SDS011;11641;51.018;4.474;2023-04-08T06:54:06;35.55;;;18.50;;
22949;SDS011;11641;51.018;4.474;2023-04-08T06:56:34;37.65;;;19.10;;
22949;SDS011;11641;51.018;4.474;2023-04-08T06:59:02;37.17;;;18.20;;
22949;SDS011;11641;51.018;4.474;2023-04-08T07:01:33;33.75;;;18.08;;
22949;SDS011;11641;51.018;4.474;2023-04-08T07:03:58;35.45;;;17.85;;
22949;SDS011;11641;51.018;4.474;2023-04-08T07:06:26;38.75;;;20.17;;
22949;SDS011;11641;51.018;4.474;2023-04-08T07:08:54;33.50;;;19.50;;
22949;SDS011;11641;51.018;4.474;2023-04-08T07:11:22;36.25;;;19.60;;
22949;SDS011;11641;51.018;4.474;2023-04-08T07:13:47;35.58;;;18.95;;
22949;SDS011;11641;51.018;4.474;2023-04-08T07:16:13;36.88;;;20.23;;
22949;SDS011;11641;51.018;4.474;2023-04-08T07:18:39;38.17;;;20.13;;
22949;SDS011;11641;51.018;4.474;2023-04-08T07:21:06;37.72;;;19.00;;
22949;SDS011;11641;51.018;4.474;2023-04-08T07:23:32;36.25;;;20.05;;
22949;SDS011;11641;51.018;4.474;2023-04-08T07:26:04;36.00;;;19.08;;
22949;SDS011;11641;51.018;4.474;2023-04-08T07:28:30;33.70;;;19.25;;
22949;SDS011;11641;51.018;4.474;2023-04-08T07:30:56;43.05;;;19.02;;
22949;SDS011;11641;51.018;4.474;2023-04-08T07:33:32;40.08;;;20.48;;
22949;SDS011;11641;51.018;4.474;2023-04-08T07:36:02;30.63;;;18.73;;
22949;SDS011;11641;51.018;4.474;2023-04-08T07:38:30;32.47;;;19.48;;
22949;SDS011;11641;51.018;4.474;2023-04-08T07:40:56;41.80;;;20.95;;
22949;SDS011;11641;51.018;4.474;2023-04-08T07:43:22;37.08;;;21.30;;
22949;SDS011;11641;51.018;4.474;2023-04-08T07:45:47;40.45;;;20.85;;
22949;SDS011;11641;51.018;4.474;2023-04-08T07:48:13;34.20;;;20.80;;
22949;SDS011;11641;51.018;4.474;2023-04-08T07:50:39;33.45;;;19.40;;
22949;SDS011;11641;51.018;4.474;2023-04-08T07:53:06;32.90;;;20.55;;
22949;SDS011;11641;51.018;4.474;2023-04-08T07:55:35;34.22;;;19.90;;
22949;SDS011;11641;51.018;4.474;2023-04-08T07:58:04;38.65;;;19.05;;
22949;SDS011;11641;51.018;4.474;2023-04-08T08:00:30;34.75;;;20.35;;
22949;SDS011;11641;51.018;4.474;2023-04-08T08:02:57;39.78;;;19.77;;
22949;SDS011;11641;51.018;4.474;2023-04-08T08:05:22;37.83;;;20.45;;
22949;SDS011;11641;51.018;4.474;2023-04-08T08:07:48;39.67;;;20.13;;
22949;SDS011;11641;51.018;4.474;2023-04-08T08:10:14;33.95;;;19.98;;
22949;SDS011;11641;51.018;4.474;2023-04-08T08:12:40;33.90;;;19.20;;
22949;SDS011;11641;51.018;4.474;2023-04-08T08:15:06;35.38;;;19.90;;
22949;SDS011;11641;51.018;4.474;2023-04-08T08:17:32;37.13;;;22.75;;
22949;SDS011;11641;51.018;4.474;2023-04-08T08:20:00;40.28;;;23.60;;
22949;SDS011;11641;51.018;4.474;2023-04-08T08:22:26;41.60;;;22.83;;
22949;SDS011;11641;51.018;4.474;2023-04-08T08:24:57;41.83;;;22.70;;
22949;SDS011;11641;51.018;4.474;2023-04-08T08:27:23;38.03;;;23.35;;
22949;SDS011;11641;51.018;4.474;2023-04-08T08:29:50;34.83;;;22.20;;
22949;SDS011;11641;51.018;4.474;2023-04-08T08:32:16;44.03;;;22.80;;
22949;SDS011;11641;51.018;4.474;2023-04-08T08:34:42;41.65;;;23.17;;
22949;SDS011;11641;51.018;4.474;2023-04-08T08:37:10;38.40;;;22.65;;
22949;SDS011;11641;51.018;4.474;2023-04-08T08:39:36;39.30;;;21.35;;
22949;SDS011;11641;51.018;4.474;2023-04-08T08:42:04;36.25;;;21.58;;
22949;SDS011;11641;51.018;4.474;2023-04-08T08:44:30;40.65;;;23.38;;
22949;SDS011;11641;51.018;4.474;2023-04-08T08:46:56;34.28;;;20.33;;
22949;SDS011;11641;51.018;4.474;2023-04-08T08:49:21;36.63;;;20.02;;
22949;SDS011;11641;51.018;4.474;2023-04-08T08:51:48;35.13;;;21.52;;
22949;SDS011;11641;51.018;4.474;2023-04-08T08:54:18;28.52;;;19.60;;
22949;SDS011;11641;51.018;4.474;2023-04-08T08:56:43;36.60;;;20.90;;
22949;SDS011;11641;51.018;4.474;2023-04-08T08:59:09;31.50;;;19.77;;
22949;SDS011;11641;51.018;4.474;2023-04-08T09:01:36;32.85;;;19.88;;
22949;SDS011;11641;51.018;4.474;2023-04-08T09:06:37;32.20;;;18.95;;
22949;SDS011;11641;51.018;4.474;2023-04-08T09:09:08;32.63;;;19.45;;
22949;SDS011;11641;51.018;4.474;2023-04-08T09:11:35;33.05;;;17.88;;
22949;SDS011;11641;51.018;4.474;2023-04-08T09:14:02;31.30;;;18.48;;
22949;SDS011;11641;51.018;4.474;2023-04-08T09:16:28;32.60;;;18.10;;
22949;SDS011;11641;51.018;4.474;2023-04-08T09:18:57;27.13;;;18.17;;
22949;SDS011;11641;51.018;4.474;2023-04-08T09:21:35;28.17;;;16.33;;
22949;SDS011;11641;51.018;4.474;2023-04-08T09:24:01;25.40;;;15.65;;
22949;SDS011;11641;51.018;4.474;2023-04-08T09:26:29;24.35;;;15.98;;
22949;SDS011;11641;51.018;4.474;2023-04-08T09:29:07;26.10;;;15.20;;
22949;SDS011;11641;51.018;4.474;2023-04-08T09:31:37;25.15;;;16.23;;
22949;SDS011;11641;51.018;4.474;2023-04-08T09:34:10;29.75;;;17.63;;
22949;SDS011;11641;51.018;4.474;2023-04-08T09:36:39;26.17;;;16.50;;
22949;SDS011;11641;51.018;4.474;2023-04-08T09:39:10;28.15;;;16.13;;
22949;SDS011;11641;51.018;4.474;2023-04-08T09:41:37;27.92;;;16.42;;
22949;SDS011;11641;51.018;4.474;2023-04-08T09:44:04;26.55;;;16.42;;
22949;SDS011;11641;51.018;4.474;2023-04-08T09:51:37;25.00;;;16.27;;
22949;SDS011;11641;51.018;4.474;2023-04-08T09:54:13;25.92;;;17.75;;
22949;SDS011;11641;51.018;4.474;2023-04-08T09:56:45;22.35;;;15.05;;
22949;SDS011;11641;51.018;4.474;2023-04-08T09:59:16;28.17;;;17.17;;
22949;SDS011;11641;51.018;4.474;2023-04-08T10:01:49;28.08;;;16.90;;
22949;SDS011;11641;51.018;4.474;2023-04-08T10:04:17;29.73;;;16.45;;
22949;SDS011;11641;51.018;4.474;2023-04-08T10:06:56;30.60;;;17.48;;
22949;SDS011;11641;51.018;4.474;2023-04-08T10:09:25;23.25;;;15.90;;
22949;SDS011;11641;51.018;4.474;2023-04-08T10:11:52;27.23;;;17.23;;
22949;SDS011;11641;51.018;4.474;2023-04-08T10:14:18;25.73;;;15.68;;
22949;SDS011;11641;51.018;4.474;2023-04-08T10:16:46;21.77;;;14.70;;
22949;SDS011;11641;51.018;4.474;2023-04-08T10:27:44;19.98;;;12.32;;
22949;SDS011;11641;51.018;4.474;2023-04-08T10:32:57;18.70;;;12.43;;
22949;SDS011;11641;51.018;4.474;2023-04-08T10:35:36;20.50;;;13.60;;
22949;SDS011;11641;51.018;4.474;2023-04-08T10:38:06;19.67;;;13.18;;
22949;SDS011;11641;51.018;4.474;2023-04-08T10:40:35;18.42;;;11.65;;
22949;SDS011;11641;51.018;4.474;2023-04-08T10:43:03;18.10;;;11.35;;
22949;SDS011;11641;51.018;4.474;2023-04-08T10:45:31;14.90;;;10.55;;
22949;SDS011;11641;51.018;4.474;2023-04-08T10:48:10;16.85;;;10.98;;
22949;SDS011;11641;51.018;4.474;2023-04-08T10:50:59;20.50;;;12.13;;
22949;SDS011;11641;51.018;4.474;2023-04-08T10:53:35;19.52;;;12.60;;
22949;SDS011;11641;51.018;4.474;2023-04-08T10:56:13;19.45;;;11.98;;
22949;SDS011;11641;51.018;4.474;2023-04-08T10:58:46;17.40;;;10.60;;
22949;SDS011;11641;51.018;4.474;2023-04-08T11:01:16;16.75;;;11.15;;
22949;SDS011;11641;51.018;4.474;2023-04-08T11:03:42;18.77;;;12.93;;
22949;SDS011;11641;51.018;4.474;2023-04-08T11:06:08;18.13;;;12.38;;
22949;SDS011;11641;51.018;4.474;2023-04-08T11:08:36;17.90;;;11.90;;
22949;SDS011;11641;51.018;4.474;2023-04-08T11:11:03;17.13;;;12.05;;
22949;SDS011;11641;51.018;4.474;2023-04-08T11:13:33;17.55;;;11.02;;
22949;SDS011;11641;51.018;4.474;2023-04-08T11:16:00;14.45;;;10.77;;
22949;SDS011;11641;51.018;4.474;2023-04-08T11:18:28;15.88;;;10.63;;
22949;SDS011;11641;51.018;4.474;2023-04-08T11:20:58;17.38;;;9.90;;
22949;SDS011;11641;51.018;4.474;2023-04-08T11:23:27;16.83;;;9.45;;
22949;SDS011;11641;51.018;4.474;2023-04-08T11:25:52;13.85;;;9.48;;
22949;SDS011;11641;51.018;4.474;2023-04-08T11:28:21;12.60;;;8.60;;
22949;SDS011;11641;51.018;4.474;2023-04-08T11:30:47;12.75;;;9.27;;
22949;SDS011;11641;51.018;4.474;2023-04-08T11:33:17;13.50;;;8.95;;
22949;SDS011;11641;51.018;4.474;2023-04-08T11:35:49;12.20;;;8.93;;
22949;SDS011;11641;51.018;4.474;2023-04-08T11:38:15;17.85;;;11.35;;
22949;SDS011;11641;51.018;4.474;2023-04-08T11:40:51;16.10;;;12.02;;
22949;SDS011;11641;51.018;4.474;2023-04-08T11:43:20;21.75;;;13.70;;
22949;SDS011;11641;51.018;4.474;2023-04-08T11:45:46;19.95;;;13.63;;
22949;SDS011;11641;51.018;4.474;2023-04-08T11:48:12;19.48;;;14.75;;
22949;SDS011;11641;51.018;4.474;2023-04-08T11:50:39;18.10;;;13.60;;
22949;SDS011;11641;51.018;4.474;2023-04-08T11:53:15;19.15;;;13.40;;
22949;SDS011;11641;51.018;4.474;2023-04-08T11:55:42;19.58;;;13.43;;
22949;SDS011;11641;51.018;4.474;2023-04-08T11:58:08;19.83;;;13.57;;
22949;SDS011;11641;51.018;4.474;2023-04-08T12:00:33;20.88;;;14.98;;
22949;SDS011;11641;51.018;4.474;2023-04-08T12:03:01;21.02;;;13.18;;
22949;SDS011;11641;51.018;4.474;2023-04-08T12:05:26;24.75;;;13.82;;
22949;SDS011;11641;51.018;4.474;2023-04-08T12:07:52;23.02;;;13.30;;
22949;SDS011;11641;51.018;4.474;2023-04-08T12:10:18;15.80;;;12.05;;
22949;SDS011;11641;51.018;4.474;2023-04-08T12:12:43;17.95;;;12.18;;
22949;SDS011;11641;51.018;4.474;2023-04-08T12:15:09;15.63;;;11.23;;
22949;SDS011;11641;51.018;4.474;2023-04-08T12:17:37;18.42;;;12.52;;
22949;SDS011;11641;51.018;4.474;2023-04-08T12:20:06;16.13;;;10.68;;
22949;SDS011;11641;51.018;4.474;2023-04-08T12:22:35;16.10;;;12.13;;
22949;SDS011;11641;51.018;4.474;2023-04-08T12:25:01;16.80;;;12.45;;
22949;SDS011;11641;51.018;4.474;2023-04-08T12:27:30;14.18;;;11.35;;
22949;SDS011;11641;51.018;4.474;2023-04-08T12:29:59;16.33;;;10.60;;
22949;SDS011;11641;51.018;4.474;2023-04-08T12:32:25;16.52;;;12.45;;
22949;SDS011;11641;51.018;4.474;2023-04-08T12:34:51;16.63;;;12.30;;
22949;SDS011;11641;51.018;4.474;2023-04-08T12:37:17;16.38;;;12.80;;
22949;SDS011;11641;51.018;4.474;2023-04-08T12:39:42;16.08;;;12.98;;
22949;SDS011;11641;51.018;4.474;2023-04-08T12:42:08;17.90;;;12.68;;
22949;SDS011;11641;51.018;4.474;2023-04-08T12:44:36;15.93;;;12.65;;
22949;SDS011;11641;51.018;4.474;2023-04-08T12:47:02;16.58;;;12.10;;
22949;SDS011;11641;51.018;4.474;2023-04-08T12:49:27;17.95;;;13.40;;
22949;SDS011;11641;51.018;4.474;2023-04-08T12:51:53;18.67;;;12.25;;
22949;SDS011;11641;51.018;4.474;2023-04-08T12:54:19;16.55;;;12.45;;
22949;SDS011;11641;51.018;4.474;2023-04-08T12:56:45;15.38;;;11.02;;
22949;SDS011;11641;51.018;4.474;2023-04-08T12:59:13;15.63;;;11.55;;
22949;SDS011;11641;51.018;4.474;2023-04-08T13:01:41;14.38;;;10.30;;
22949;SDS011;11641;51.018;4.474;2023-04-08T13:04:11;16.95;;;12.60;;
22949;SDS011;11641;51.018;4.474;2023-04-08T13:06:37;13.88;;;10.85;;
22949;SDS011;11641;51.018;4.474;2023-04-08T13:09:05;15.15;;;11.63;;
22949;SDS011;11641;51.018;4.474;2023-04-08T13:11:33;17.30;;;13.15;;
22949;SDS011;11641;51.018;4.474;2023-04-08T13:13:58;18.98;;;13.23;;
22949;SDS011;11641;51.018;4.474;2023-04-08T13:16:24;18.83;;;13.57;;
22949;SDS011;11641;51.018;4.474;2023-04-08T13:18:54;17.50;;;14.18;;
22949;SDS011;11641;51.018;4.474;2023-04-08T13:21:20;19.10;;;13.77;;
22949;SDS011;11641;51.018;4.474;2023-04-08T13:23:46;19.70;;;14.68;;
22949;SDS011;11641;51.018;4.474;2023-04-08T13:26:17;20.88;;;13.75;;
22949;SDS011;11641;51.018;4.474;2023-04-08T13:28:42;19.33;;;14.20;;
22949;SDS011;11641;51.018;4.474;2023-04-08T13:31:08;19.38;;;14.32;;
22949;SDS011;11641;51.018;4.474;2023-04-08T13:33:36;18.40;;;13.52;;
22949;SDS011;11641;51.018;4.474;2023-04-08T13:36:04;17.88;;;13.82;;
22949;SDS011;11641;51.018;4.474;2023-04-08T13:38:30;22.30;;;14.68;;
22949;SDS011;11641;51.018;4.474;2023-04-08T13:40:56;15.18;;;12.32;;
22949;SDS011;11641;51.018;4.474;2023-04-08T13:43:22;19.67;;;13.25;;
22949;SDS011;11641;51.018;4.474;2023-04-08T13:45:47;18.05;;;12.70;;
22949;SDS011;11641;51.018;4.474;2023-04-08T13:48:13;14.68;;;11.63;;
22949;SDS011;11641;51.018;4.474;2023-04-08T13:50:38;16.10;;;12.02;;
22949;SDS011;11641;51.018;4.474;2023-04-08T13:53:05;16.02;;;11.82;;
22949;SDS011;11641;51.018;4.474;2023-04-08T13:55:33;14.88;;;12.68;;
22949;SDS011;11641;51.018;4.474;2023-04-08T13:58:01;16.00;;;12.77;;
22949;SDS011;11641;51.018;4.474;2023-04-08T14:00:29;18.35;;;13.48;;
22949;SDS011;11641;51.018;4.474;2023-04-08T14:02:55;17.83;;;13.13;;
22949;SDS011;11641;51.018;4.474;2023-04-08T14:05:24;19.58;;;13.68;;
22949;SDS011;11641;51.018;4.474;2023-04-08T14:07:50;14.95;;;12.23;;
22949;SDS011;11641;51.018;4.474;2023-04-08T14:10:18;19.60;;;13.75;;
22949;SDS011;11641;51.018;4.474;2023-04-08T14:12:43;17.90;;;13.82;;
22949;SDS011;11641;51.018;4.474;2023-04-08T14:15:10;19.25;;;13.90;;
22949;SDS011;11641;51.018;4.474;2023-04-08T14:17:36;21.00;;;12.95;;
22949;SDS011;11641;51.018;4.474;2023-04-08T14:20:02;15.65;;;12.63;;
22949;SDS011;11641;51.018;4.474;2023-04-08T14:22:29;16.38;;;12.88;;
22949;SDS011;11641;51.018;4.474;2023-04-08T14:24:55;15.93;;;11.43;;
22949;SDS011;11641;51.018;4.474;2023-04-08T14:27:22;12.45;;;10.50;;
22949;SDS011;11641;51.018;4.474;2023-04-08T14:29:51;13.00;;;9.48;;
22949;SDS011;11641;51.018;4.474;2023-04-08T14:32:16;13.05;;;9.45;;
22949;SDS011;11641;51.018;4.474;2023-04-08T14:34:42;10.43;;;9.15;;
22949;SDS011;11641;51.018;4.474;2023-04-08T14:37:08;11.38;;;9.75;;
22949;SDS011;11641;51.018;4.474;2023-04-08T14:39:34;11.73;;;9.35;;
22949;SDS011;11641;51.018;4.474;2023-04-08T14:42:00;10.38;;;9.27;;
22949;SDS011;11641;51.018;4.474;2023-04-08T14:44:28;11.05;;;9.23;;
22949;SDS011;11641;51.018;4.474;2023-04-08T14:46:53;10.27;;;9.27;;
22949;SDS011;11641;51.018;4.474;2023-04-08T14:49:19;11.60;;;9.02;;